createdAt,value
2019-04-07T00:00:44.577Z,96058.69
2019-04-07T00:03:11.587Z,96049.27
2019-04-07T00:05:38.912Z,96058.42
2019-04-07T00:08:05.814Z,96055.81
2019-04-07T00:10:32.775Z,96060.52
2019-04-07T00:12:59.706Z,96061.83
2019-04-07T00:15:26.631Z,96055.28
2019-04-07T00:17:53.542Z,96055.81
2019-04-07T00:20:20.859Z,96053.20
2019-04-07T00:22:47.828Z,96061.30
2019-04-07T00:25:14.790Z,96055.81
2019-04-07T00:27:41.737Z,96059.21
2019-04-07T00:30:08.901Z,96059.73
2019-04-07T00:32:35.783Z,96053.20
2019-04-07T00:35:03.076Z,96051.10
2019-04-07T00:37:31.064Z,96055.81
2019-04-07T00:39:58.113Z,96055.81
2019-04-07T00:42:25.020Z,96050.58
2019-04-07T00:44:51.948Z,96045.87
2019-04-07T00:47:18.852Z,96049.27
2019-04-07T00:49:45.798Z,96047.44
2019-04-07T00:52:14.349Z,96049.52
2019-04-07T00:54:41.280Z,96045.34
2019-04-07T00:57:08.378Z,96042.72
2019-04-07T00:59:35.321Z,96043.51
2019-04-07T01:02:02.562Z,96039.58
2019-04-07T01:04:29.549Z,96026.23
2019-04-07T01:06:56.860Z,96032.51
2019-04-07T01:09:24.543Z,96025.19
2019-04-07T01:11:52.277Z,96026.49
2019-04-07T01:14:19.426Z,96027.02
2019-04-07T01:16:47.136Z,96024.41
2019-04-07T01:19:14.666Z,96027.02
2019-04-07T01:21:41.706Z,96030.95
2019-04-07T01:24:08.810Z,96030.41
2019-04-07T01:26:35.824Z,96036.44
2019-04-07T01:29:03.094Z,96033.03
2019-04-07T01:31:30.101Z,96033.03
2019-04-07T01:33:57.050Z,96036.44
2019-04-07T01:36:24.005Z,96031.73
2019-04-07T01:38:51.161Z,96035.66
2019-04-07T01:41:28.684Z,96036.96
2019-04-07T01:44:06.334Z,96035.13
2019-04-07T01:46:35.377Z,96035.66
2019-04-07T01:49:19.413Z,96039.83
2019-04-07T01:52:04.369Z,96037.74
2019-04-07T01:54:39.550Z,96042.98
2019-04-07T01:57:14.639Z,96035.13
2019-04-07T01:59:59.803Z,96035.66
2019-04-07T02:02:31.189Z,96033.81
2019-04-07T02:05:08.700Z,96039.05
2019-04-07T02:07:37.524Z,96037.74
2019-04-07T02:10:06.079Z,96031.73
2019-04-07T02:12:50.638Z,96031.73
2019-04-07T02:15:31.866Z,96034.34
2019-04-07T02:18:00.904Z,96041.67
2019-04-07T02:20:36.091Z,96036.96
2019-04-07T02:23:11.074Z,96037.74
2019-04-07T02:25:43.864Z,96035.13
2019-04-07T02:28:12.452Z,96038.52
2019-04-07T02:30:41.583Z,96036.96
2019-04-07T02:33:26.463Z,96034.60
2019-04-07T02:36:14.463Z,96036.18
2019-04-07T02:38:31.632Z,96043.51
2019-04-07T02:41:17.755Z,96045.34
2019-04-07T02:44:04.914Z,96042.45
2019-04-07T02:46:39.511Z,96046.91
2019-04-07T02:49:20.332Z,96047.44
2019-04-07T02:52:09.102Z,96045.59
2019-04-07T02:54:40.590Z,96050.83
2019-04-07T02:57:10.225Z,96048.21
2019-04-07T02:59:43.009Z,96052.14
2019-04-07T03:02:21.132Z,96048.99
2019-04-07T03:05:05.298Z,96051.09
2019-04-07T03:07:50.436Z,96052.92
2019-04-07T03:10:36.458Z,96055.02
2019-04-07T03:13:21.130Z,96077.78
2019-04-07T03:16:00.494Z,96059.99
2019-04-07T03:18:42.485Z,96065.23
2019-04-07T03:21:11.695Z,96063.14
2019-04-07T03:23:46.137Z,96073.08
2019-04-07T03:26:30.006Z,96067.06
2019-04-07T03:29:01.545Z,96065.48
2019-04-07T03:31:48.434Z,96070.46
2019-04-07T03:34:20.627Z,96067.84
2019-04-07T03:37:19.121Z,96073.08
2019-04-07T03:39:29.994Z,96067.31
2019-04-07T03:42:01.770Z,96067.84
2019-04-07T03:44:30.310Z,96070.98
2019-04-07T03:46:59.868Z,96073.08
2019-04-07T03:49:35.177Z,96068.63
2019-04-07T03:52:21.126Z,96063.14
2019-04-07T03:55:05.123Z,96068.37
2019-04-07T03:57:36.665Z,96061.05
2019-04-07T04:00:20.937Z,96067.06
2019-04-07T04:03:00.326Z,96064.97
2019-04-07T04:05:31.198Z,96069.68
2019-04-07T04:08:02.655Z,96073.61
2019-04-07T04:10:48.475Z,96069.68
2019-04-07T04:13:23.184Z,96067.06
2019-04-07T04:15:51.864Z,96067.84
2019-04-07T04:18:18.906Z,96067.59
2019-04-07T04:20:46.428Z,96070.98
2019-04-07T04:23:14.339Z,96066.80
2019-04-07T04:25:41.396Z,96075.44
2019-04-07T04:28:08.452Z,96074.13
2019-04-07T04:30:36.043Z,96079.37
2019-04-07T04:33:03.985Z,96072.30
2019-04-07T04:35:32.211Z,96078.84
2019-04-07T04:38:01.876Z,96081.20
2019-04-07T04:40:29.833Z,96081.20
2019-04-07T04:42:56.977Z,96086.69
2019-04-07T04:45:24.586Z,96086.44
2019-04-07T04:47:51.801Z,96088.53
2019-04-07T04:50:18.777Z,96090.37
2019-04-07T04:52:46.813Z,96096.13
2019-04-07T04:55:13.858Z,96099.52
2019-04-07T04:57:40.960Z,96100.31
2019-04-07T05:00:07.967Z,96102.92
2019-04-07T05:02:35.236Z,96096.91
2019-04-07T05:05:02.617Z,96097.44
2019-04-07T05:07:30.136Z,96115.23
2019-04-07T05:09:57.267Z,96117.32
2019-04-07T05:12:24.412Z,96111.30
2019-04-07T05:14:51.492Z,96116.54
2019-04-07T05:17:18.445Z,96114.97
2019-04-07T05:19:45.410Z,96118.38
2019-04-07T05:22:12.545Z,96119.16
2019-04-07T05:24:40.052Z,96115.76
2019-04-07T05:27:07.408Z,96119.69
2019-04-07T05:29:34.410Z,96121.78
2019-04-07T05:32:01.488Z,96124.92
2019-04-07T05:34:28.634Z,96127.53
2019-04-07T05:36:56.121Z,96129.37
2019-04-07T05:39:24.067Z,96129.11
2019-04-07T05:41:51.033Z,96137.22
2019-04-07T05:44:17.978Z,96134.61
2019-04-07T05:46:45.293Z,96135.39
2019-04-07T05:49:15.068Z,96133.82
2019-04-07T05:51:41.262Z,96134.35
2019-04-07T05:54:08.165Z,96135.13
2019-04-07T05:56:35.731Z,96135.91
2019-04-07T05:59:03.021Z,96134.08
2019-04-07T06:01:30.105Z,96139.06
2019-04-07T06:03:57.702Z,96142.73
2019-04-07T06:06:25.786Z,96149.00
2019-04-07T06:08:53.065Z,96142.73
2019-04-07T06:11:20.439Z,96142.98
2019-04-07T06:13:47.571Z,96144.30
2019-04-07T06:16:15.173Z,96141.42
2019-04-07T06:18:44.535Z,96148.22
2019-04-07T06:21:14.095Z,96142.47
2019-04-07T06:23:41.154Z,96141.67
2019-04-07T06:26:11.197Z,96143.52
2019-04-07T06:28:37.028Z,96141.42
2019-04-07T06:31:04.075Z,96146.91
2019-04-07T06:33:31.957Z,96156.08
2019-04-07T06:35:59.522Z,96152.67
2019-04-07T06:38:33.852Z,96153.45
2019-04-07T06:40:57.779Z,96148.22
2019-04-07T06:43:23.704Z,96151.11
2019-04-07T06:46:08.615Z,96155.81
2019-04-07T06:48:38.857Z,96154.50
2019-04-07T06:51:10.680Z,96155.03
2019-04-07T06:53:49.077Z,96154.25
2019-04-07T06:56:18.562Z,96154.25
2019-04-07T06:58:47.198Z,96158.43
2019-04-07T07:01:28.480Z,96157.91
2019-04-07T07:04:15.677Z,96160.80
2019-04-07T07:07:00.641Z,96158.70
2019-04-07T07:09:36.245Z,96153.47
2019-04-07T07:12:20.582Z,96160.27
2019-04-07T07:15:00.909Z,96162.36
2019-04-07T07:17:34.432Z,96166.03
2019-04-07T07:20:10.288Z,96160.27
2019-04-07T07:22:48.692Z,96157.13
2019-04-07T07:25:16.969Z,96164.72
2019-04-07T07:27:44.475Z,96163.67
2019-04-07T07:30:12.050Z,96166.28
2019-04-07T07:32:39.840Z,96168.38
2019-04-07T07:35:07.970Z,96164.72
2019-04-07T07:37:35.339Z,96168.64
2019-04-07T07:40:05.847Z,96170.47
2019-04-07T07:42:32.125Z,96172.30
2019-04-07T07:45:00.588Z,96167.34
2019-04-07T07:47:27.620Z,96165.73
2019-04-07T07:49:55.071Z,96164.72
2019-04-07T07:52:22.185Z,96168.64
2019-04-07T07:54:51.886Z,96166.03
2019-04-07T07:57:23.466Z,96175.19
2019-04-07T07:59:48.660Z,96180.42
2019-04-07T08:02:19.416Z,96180.42
2019-04-07T08:04:45.354Z,96178.06
2019-04-07T08:07:15.242Z,96180.42
2019-04-07T08:09:42.025Z,96185.91
2019-04-07T08:12:10.658Z,96181.20
2019-04-07T08:14:37.698Z,96182.52
2019-04-07T08:17:05.867Z,96186.97
2019-04-07T08:19:33.047Z,96183.30
2019-04-07T08:22:00.647Z,96193.24
2019-04-07T08:24:28.290Z,96192.45
2019-04-07T08:26:57.115Z,96191.42
2019-04-07T08:29:24.234Z,96197.70
2019-04-07T08:31:53.996Z,96196.64
2019-04-07T08:34:19.882Z,96194.03
2019-04-07T08:36:48.181Z,96199.53
2019-04-07T08:39:22.698Z,96195.08
2019-04-07T08:41:44.151Z,96199.00
2019-04-07T08:44:11.522Z,96197.70
2019-04-07T08:46:40.954Z,96196.91
2019-04-07T08:49:07.632Z,96199.53
2019-04-07T08:51:35.129Z,96201.88
2019-04-07T08:54:04.548Z,96203.19
2019-04-07T08:56:30.995Z,96200.31
2019-04-07T08:58:58.024Z,96203.97
2019-04-07T09:01:26.898Z,96202.92
2019-04-07T09:03:54.227Z,96208.94
2019-04-07T09:06:25.551Z,96202.66
2019-04-07T09:08:53.162Z,96202.39
2019-04-07T09:11:23.665Z,96201.35
2019-04-07T09:13:55.848Z,96202.66
2019-04-07T09:16:29.029Z,96200.31
2019-04-07T09:19:15.263Z,96196.64
2019-04-07T09:21:52.044Z,96201.88
2019-04-07T09:24:21.520Z,96194.03
2019-04-07T09:27:06.403Z,96203.45
2019-04-07T09:29:51.305Z,96205.53
2019-04-07T09:32:22.742Z,96112.69
2019-04-07T09:34:59.400Z,96202.14
2019-04-07T09:37:34.044Z,96200.83
2019-04-07T09:40:04.407Z,96198.21
2019-04-07T09:42:39.025Z,96204.75
2019-04-07T09:45:12.457Z,96203.45
2019-04-07T09:47:52.821Z,96195.59
2019-04-07T09:50:26.868Z,96200.05
2019-04-07T09:53:00.678Z,96203.45
2019-04-07T09:55:30.095Z,96199.52
2019-04-07T09:57:59.500Z,96201.35
2019-04-07T10:00:45.477Z,96205.53
2019-04-07T10:03:17.101Z,96204.23
2019-04-07T10:05:48.649Z,96202.66
2019-04-07T10:08:20.341Z,96201.09
2019-04-07T10:11:00.760Z,96200.53
2019-04-07T10:13:29.669Z,96199.50
2019-04-07T10:16:02.338Z,96204.22
2019-04-07T10:18:47.363Z,96203.97
2019-04-07T10:21:16.680Z,96203.45
2019-04-07T10:24:02.803Z,96199.25
2019-04-07T10:26:48.603Z,96197.91
2019-04-07T10:29:23.418Z,96196.89
2019-04-07T10:32:11.311Z,96199.51
2019-04-07T10:34:46.096Z,96198.44
2019-04-07T10:37:20.931Z,96199.51
2019-04-07T10:39:52.691Z,96203.16
2019-04-07T10:42:21.907Z,96200.56
2019-04-07T10:44:51.419Z,96198.72
2019-04-07T10:47:21.201Z,96200.83
2019-04-07T10:50:06.194Z,96194.55
2019-04-07T10:52:42.281Z,96198.21
2019-04-07T10:55:14.182Z,96200.03
2019-04-07T10:57:59.824Z,96206.30
2019-04-07T11:00:28.598Z,96208.92
2019-04-07T11:03:06.490Z,96207.11
2019-04-07T11:05:35.157Z,96203.45
2019-04-07T11:08:16.674Z,96202.64
2019-04-07T11:10:53.219Z,96200.83
2019-04-07T11:13:38.719Z,96203.16
2019-04-07T11:16:20.303Z,96192.98
2019-04-07T11:18:49.185Z,96203.95
2019-04-07T11:21:34.005Z,96199.00
2019-04-07T11:24:15.666Z,96195.86
2019-04-07T11:26:50.187Z,96195.84
2019-04-07T11:29:38.518Z,96193.73
2019-04-07T11:32:10.412Z,96199.78
2019-04-07T11:34:56.287Z,96194.52
2019-04-07T11:37:27.672Z,96192.69
2019-04-07T11:40:12.854Z,96185.64
2019-04-07T11:42:48.043Z,96193.49
2019-04-07T11:45:33.492Z,96185.11
2019-04-07T11:48:02.201Z,96188.27
2019-04-07T11:50:30.995Z,96186.69
2019-04-07T11:53:00.534Z,96188.77
2019-04-07T11:55:38.824Z,96188.52
2019-04-07T11:58:15.587Z,96186.69
2019-04-07T12:00:52.653Z,96186.67
2019-04-07T12:03:27.988Z,96188.76
2019-04-07T12:05:58.113Z,96228.05
2019-04-07T12:08:45.587Z,96178.84
2019-04-07T12:11:17.978Z,96186.16
2019-04-07T12:13:52.643Z,96184.33
2019-04-07T12:16:33.746Z,96191.39
2019-04-07T12:19:12.599Z,96183.04
2019-04-07T12:21:51.199Z,96187.72
2019-04-07T12:24:25.920Z,96191.66
2019-04-07T12:26:56.743Z,96184.59
2019-04-07T12:29:41.698Z,96185.34
2019-04-07T12:32:22.424Z,96172.23
2019-04-07T12:34:50.998Z,96169.84
2019-04-07T12:37:31.792Z,96172.45
2019-04-07T12:40:12.893Z,96167.74
2019-04-07T12:42:44.204Z,96173.23
2019-04-07T12:45:29.914Z,96175.86
2019-04-07T12:48:11.305Z,96169.56
2019-04-07T12:50:48.902Z,96189.21
2019-04-07T12:53:33.500Z,96167.22
2019-04-07T12:56:08.072Z,96169.04
2019-04-07T12:58:48.984Z,96167.23
2019-04-07T13:01:35.591Z,96166.98
2019-04-07T13:04:10.122Z,96160.44
2019-04-07T13:06:44.915Z,96167.52
2019-04-07T13:09:31.448Z,96164.64
2019-04-07T13:12:07.650Z,96160.97
2019-04-07T13:14:49.048Z,96155.48
2019-04-07T13:17:36.609Z,96161.77
2019-04-07T13:20:10.806Z,96159.67
2019-04-07T13:22:42.250Z,96159.93
2019-04-07T13:25:30.235Z,96153.91
2019-04-07T13:28:11.627Z,96155.75
2019-04-07T13:30:40.907Z,96153.66
2019-04-07T13:33:29.521Z,96159.13
2019-04-07T13:36:00.746Z,96154.66
2019-04-07T13:38:47.604Z,96157.52
2019-04-07T13:41:41.683Z,96147.83
2019-04-07T13:44:13.334Z,96157.54
2019-04-07T13:46:57.522Z,96155.16
2019-04-07T13:49:44.732Z,96160.40
2019-04-07T13:52:17.871Z,96154.14
2019-04-07T13:54:43.681Z,96159.36
2019-04-07T13:57:15.557Z,96162.23
2019-04-07T13:59:49.858Z,96159.89
2019-04-07T14:02:18.585Z,96182.13
2019-04-07T14:04:50.019Z,96160.40
2019-04-07T14:07:35.338Z,96163.55
2019-04-07T14:10:13.382Z,96159.87
2019-04-07T14:12:54.392Z,96163.55
2019-04-07T14:15:26.961Z,96166.16
2019-04-07T14:18:01.694Z,96167.73
2019-04-07T14:20:36.499Z,96169.04
2019-04-07T14:23:06.114Z,96164.85
2019-04-07T14:25:48.252Z,96165.64
2019-04-07T14:28:20.135Z,96168.26
2019-04-07T14:30:48.841Z,96162.77
2019-04-07T14:33:30.666Z,96176.64
2019-04-07T14:36:05.313Z,96173.78
2019-04-07T14:38:34.539Z,96174.02
2019-04-07T14:41:06.434Z,96182.13
2019-04-07T14:43:40.926Z,96174.80
2019-04-07T14:46:15.173Z,96182.13
2019-04-07T14:48:43.780Z,96173.49
2019-04-07T14:51:13.231Z,96178.48
2019-04-07T14:53:54.112Z,96181.09
2019-04-07T14:56:22.687Z,96172.19
2019-04-07T14:59:08.178Z,96175.33
2019-04-07T15:01:36.887Z,96175.59
2019-04-07T15:04:04.309Z,96180.59
2019-04-07T15:06:33.656Z,96183.20
2019-04-07T15:09:08.312Z,96181.11
2019-04-07T15:11:37.831Z,96183.44
2019-04-07T15:14:04.807Z,96177.19
2019-04-07T15:16:31.809Z,96176.89
2019-04-07T15:18:58.792Z,96174.28
2019-04-07T15:21:25.747Z,96178.20
2019-04-07T15:23:52.987Z,96185.56
2019-04-07T15:26:20.382Z,96180.83
2019-04-07T15:28:47.387Z,96179.02
2019-04-07T15:31:17.478Z,96188.68
2019-04-07T15:33:43.497Z,96185.28
2019-04-07T15:36:10.820Z,96179.52
2019-04-07T15:38:40.381Z,96181.89
2019-04-07T15:41:11.959Z,96187.13
2019-04-07T15:43:35.247Z,96189.50
2019-04-07T15:46:03.299Z,96186.35
2019-04-07T15:48:30.698Z,96186.35
2019-04-07T15:51:00.860Z,96190.80
2019-04-07T15:53:27.662Z,96188.19
2019-04-07T15:56:02.260Z,96183.44
2019-04-07T15:58:26.780Z,96190.80
2019-04-07T16:00:51.775Z,96190.80
2019-04-07T16:03:19.240Z,96193.68
2019-04-07T16:05:47.279Z,96193.92
2019-04-07T16:08:14.209Z,96193.68
2019-04-07T16:10:41.375Z,96194.20
2019-04-07T16:13:08.903Z,96196.55
2019-04-07T16:15:37.255Z,96197.08
2019-04-07T16:18:07.173Z,96197.61
2019-04-07T16:20:39.495Z,96203.11
2019-04-07T16:23:01.475Z,96206.25
2019-04-07T16:25:29.133Z,96198.92
2019-04-07T16:27:56.659Z,96197.84
2019-04-07T16:30:23.614Z,96202.06
2019-04-07T16:32:50.566Z,96203.09
2019-04-07T16:35:18.198Z,96206.77
2019-04-07T16:37:45.764Z,96205.47
2019-04-07T16:40:13.066Z,96211.48
2019-04-07T16:42:40.101Z,96214.38
2019-04-07T16:45:11.412Z,96221.97
2019-04-07T16:47:36.877Z,96222.48
2019-04-07T16:50:03.957Z,96233.23
2019-04-07T16:52:32.925Z,96225.89
2019-04-07T16:54:59.654Z,96233.75
2019-04-07T16:57:31.078Z,96223.80
2019-04-07T16:59:57.302Z,96228.52
2019-04-07T17:02:25.110Z,96231.91
2019-04-07T17:04:52.647Z,96233.75
2019-04-07T17:07:21.112Z,96235.58
2019-04-07T17:09:48.929Z,96233.23
2019-04-07T17:12:16.778Z,96234.53
2019-04-07T17:14:43.748Z,96240.83
2019-04-07T17:17:11.146Z,96238.46
2019-04-07T17:19:38.471Z,96241.61
2019-04-07T17:22:05.401Z,96240.83
2019-04-07T17:24:32.361Z,96236.64
2019-04-07T17:27:00.171Z,96250.77
2019-04-07T17:29:28.736Z,96247.38
2019-04-07T17:31:56.433Z,96250.77
2019-04-07T17:34:24.226Z,96256.02
2019-04-07T17:36:55.857Z,96255.75
2019-04-07T17:39:24.741Z,96257.32
2019-04-07T17:41:52.066Z,96262.56
2019-04-07T17:44:38.001Z,96271.20
2019-04-07T17:47:15.709Z,96269.89
2019-04-07T17:50:00.972Z,96278.02
2019-04-07T17:52:32.473Z,96282.98
2019-04-07T17:55:17.568Z,96280.88
2019-04-07T17:58:01.623Z,96289.26
2019-04-07T18:00:41.385Z,96296.87
2019-04-07T18:03:15.652Z,96298.19
2019-04-07T18:05:44.259Z,96301.83
2019-04-07T18:08:15.412Z,96302.35
2019-04-07T18:10:46.492Z,96308.12
2019-04-07T18:13:16.595Z,96306.80
2019-04-07T18:15:55.440Z,96314.14
2019-04-07T18:18:41.002Z,96320.95
2019-04-07T18:21:26.034Z,96321.48
2019-04-07T18:24:11.119Z,96328.28
2019-04-07T18:26:54.952Z,96332.21
2019-04-07T18:29:28.758Z,96330.64
2019-04-07T18:32:02.451Z,96334.05
2019-04-07T18:34:32.156Z,96340.34
2019-04-07T18:37:13.392Z,96342.17
2019-04-07T18:39:51.497Z,96347.41
2019-04-07T18:42:18.109Z,96356.05
2019-04-07T18:44:46.787Z,96364.70
2019-04-07T18:47:31.475Z,96353.43
2019-04-07T18:50:04.043Z,96352.39
2019-04-07T18:52:45.720Z,96354.75
2019-04-07T18:55:30.058Z,96366.53
2019-04-07T18:58:04.054Z,96374.91
2019-04-07T19:00:48.225Z,96373.08
2019-04-07T19:03:21.753Z,96374.91
2019-04-07T19:05:56.516Z,96375.97
2019-04-07T19:08:41.389Z,96379.89
2019-04-07T19:11:14.841Z,96383.82
2019-04-07T19:14:14.129Z,96388.02
2019-04-07T19:16:25.444Z,96390.11
2019-04-07T19:19:06.811Z,96389.32
2019-04-07T19:21:38.498Z,96396.13
2019-04-07T19:24:18.389Z,96394.03
2019-04-07T19:27:05.673Z,96390.11
2019-04-07T19:29:46.137Z,96392.45
2019-04-07T19:32:31.344Z,96394.02
2019-04-07T19:35:04.242Z,96398.48
2019-04-07T19:37:51.121Z,96403.45
2019-04-07T19:40:19.703Z,96401.10
2019-04-07T19:42:54.436Z,96394.30
2019-04-07T19:45:32.819Z,96399.27
2019-04-07T19:48:04.041Z,96396.39
2019-04-07T19:50:31.749Z,96401.37
2019-04-07T19:53:10.518Z,96395.34
2019-04-07T19:55:55.560Z,96401.11
2019-04-07T19:58:32.728Z,96402.94
2019-04-07T20:01:01.596Z,96411.58
2019-04-07T20:03:39.188Z,96410.27
2019-04-07T20:06:09.231Z,96416.56
2019-04-07T20:08:37.968Z,96421.27
2019-04-07T20:11:12.295Z,96426.50
2019-04-07T20:13:41.035Z,96430.71
2019-04-07T20:16:22.001Z,96434.64
2019-04-07T20:19:06.530Z,96427.56
2019-04-07T20:21:49.365Z,96424.42
2019-04-07T20:24:34.583Z,96423.38
2019-04-07T20:27:17.509Z,96421.28
2019-04-07T20:29:58.380Z,96414.45
2019-04-07T20:32:34.765Z,96415.50
2019-04-07T20:35:15.973Z,96405.81
2019-04-07T20:37:47.572Z,96408.69
2019-04-07T20:40:19.323Z,96409.48
2019-04-07T20:42:50.618Z,96411.05
2019-04-07T20:45:35.412Z,96407.12
2019-04-07T20:48:17.027Z,96402.14
2019-04-07T20:50:46.051Z,96337.13
2019-04-07T20:53:43.002Z,96399.53
2019-04-07T20:56:12.887Z,96396.38
2019-04-07T20:58:55.483Z,96395.34
2019-04-07T21:01:27.654Z,96400.05
2019-04-07T21:04:04.954Z,96400.58
2019-04-07T21:06:40.565Z,96423.63
2019-04-07T21:09:18.202Z,96402.14
2019-04-07T21:12:02.919Z,96404.50
2019-04-07T21:14:37.796Z,96404.50
2019-04-07T21:17:22.684Z,96406.33
2019-04-07T21:19:57.516Z,96410.27
2019-04-07T21:22:27.099Z,96410.00
2019-04-07T21:25:04.881Z,96419.17
2019-04-07T21:27:50.550Z,96418.91
2019-04-07T21:30:25.185Z,96420.48
2019-04-07T21:33:00.290Z,96421.79
2019-04-07T21:35:34.806Z,96418.38
2019-04-07T21:38:10.844Z,96424.93
2019-04-07T21:40:45.897Z,96422.58
2019-04-07T21:43:29.710Z,96424.41
2019-04-07T21:45:58.390Z,96422.84
2019-04-07T21:48:33.005Z,96419.70
2019-04-07T21:51:07.323Z,96428.86
2019-04-07T21:53:36.728Z,96426.24
2019-04-07T21:56:17.971Z,96427.29
2019-04-07T21:59:04.178Z,96427.81
2019-04-07T22:01:49.420Z,96434.09
2019-04-07T22:04:27.202Z,96430.70
2019-04-07T22:07:03.678Z,96430.44
2019-04-07T22:09:35.248Z,96425.20
2019-04-07T22:12:02.248Z,96420.22
2019-04-07T22:14:29.213Z,96422.05
2019-04-07T22:16:56.862Z,96418.65
2019-04-07T22:19:24.377Z,96420.74
2019-04-07T22:21:55.807Z,96416.81
2019-04-07T22:24:20.696Z,96418.65
2019-04-07T22:26:49.917Z,96414.72
2019-04-07T22:29:16.280Z,96406.87
2019-04-07T22:31:46.079Z,96410.01
2019-04-07T22:34:15.050Z,96410.01
2019-04-07T22:36:45.482Z,96411.31
2019-04-07T22:39:10.695Z,96418.65
2019-04-07T22:41:41.158Z,96424.67
2019-04-07T22:44:07.077Z,96423.89
2019-04-07T22:46:34.156Z,96433.05
2019-04-07T22:49:01.455Z,96437.50
2019-04-07T22:51:28.550Z,96436.98
2019-04-07T22:53:57.589Z,96440.65
2019-04-07T22:56:24.419Z,96446.67
2019-04-07T22:58:52.002Z,96445.36
2019-04-07T23:01:18.964Z,96454.53
2019-04-07T23:03:45.869Z,96461.08
2019-04-07T23:06:12.840Z,96465.00
2019-04-07T23:08:39.759Z,96478.63
2019-04-07T23:11:06.677Z,96470.24
2019-04-07T23:13:33.598Z,96468.14
2019-04-07T23:16:10.015Z,96469.45
2019-04-07T23:18:29.688Z,96467.36
2019-04-07T23:20:56.843Z,96473.39
2019-04-07T23:23:23.936Z,96467.89
2019-04-07T23:25:51.454Z,96475.74
2019-04-07T23:28:18.814Z,96471.81
2019-04-07T23:30:45.858Z,96487.27
2019-04-07T23:33:12.782Z,96477.84
2019-04-07T23:35:39.704Z,96469.98
2019-04-07T23:38:06.624Z,96484.91
2019-04-07T23:40:34.286Z,96479.93
2019-04-07T23:43:01.269Z,96483.59
2019-04-07T23:45:28.193Z,96486.22
2019-04-07T23:47:55.117Z,96485.70
2019-04-07T23:50:23.032Z,96486.74
2019-04-07T23:52:49.946Z,96489.36
2019-04-07T23:55:17.123Z,96479.67
2019-04-07T23:57:44.410Z,96493.55
